METAR Data
IDs: Format: Raw Decoded Include TAF

Data at: 0010 UTC 30 May 2020

METAR for:KHPT (Hampton Muni, IA, US)
Text:KHPT 292355Z AUTO 34013G16KT 10SM CLR 20/07 A3012 RMK AO2
Temperature: 20.0°C ( 68°F)
Dewpoint: 7.0°C ( 45°F) [RH = 43%]
Pressure (altimeter):30.12 inches Hg (1020.1 mb)
Winds:from the NNW (340 degrees) at 15 MPH (13 knots; 6.7 m/s) gusting to 18 MPH (16 knots; 8.2 m/s)
Visibility:10 or more sm (16+ km)
Ceiling:at least 12,000 feet AGL
Clouds:sky clear below 12,000 feet AGL
QC Flag:automated observation with no human augmentation